Bourbonnais, IL (60914)

11:10 AM CDT am 29. Mai 2015 (GMT -0500)
Quail hallow | | Change Station
CLOSE
Current Station
Persönliche Wetterstationen
Location: Bradley, IL
Höhe: 669 ft
Wetterstationen in der Umgebung

Höhe 669 ft 41.16 °N, 87.84 °W | Updated 8 minutes ago

Wolkig
Wolkig
82.2 °F
gefühlte 85 °F
N
8.3
Wind Wechselnd Wind aus Süd-Südwest

Heute
Max. -- | schwach -- °F
--% Regenrisiko
Gestern
Max. -- | schwach -- °F
Precip. -- inch
5:22 AM 8:15 PM
Zweites Viertel, 84% visible
Druck 30.05 inch
Sichtweite 10.0 Meilen
Wolken Teils Wolkig 6000 ft
Teils Wolkig 8500 ft
Hitzeindex 85 °F
Taupunkt 67 °F
Feuchtigkeit 60%
Regen 0.00 inch
Schneehöhe Nicht verfügbar..
UV 8 von 12
Pollen 6.40 von 12
Luftqualität Nicht verfügbar..
Flu Activity Sporadic
METAR KIKK 291555Z AUTO 20014G21KT 10SM SCT060 SCT085 26/19 A3005 RMK AO2 T02580187

More Conditions Fewer Conditions

Druck 30.05 inch
Sichtweite 10.0 Meilen
Wolken Teils Wolkig 6000 ft
Teils Wolkig 8500 ft
Hitzeindex 85 °F
Taupunkt 67 °F
Feuchtigkeit 60%
Regen 0.00 inch
Schneehöhe Nicht verfügbar..
UV 8 von 12
Pollen 6.40 von 12
Luftqualität Nicht verfügbar..
Flu Activity Sporadic
METAR KIKK 291555Z AUTO 20014G21KT 10SM SCT060 SCT085 26/19 A3005 RMK AO2 T02580187

More Conditions Fewer Conditions

10-Day Weather Forecast

Almanac

Astronomie

May. 29, 2015 Aufgang Untergang
Genaue Zeit
Bürgerliche Dämmerung
Nautische Dämmerung
Astronomische Dämmerung
Mond
Länge des sichtbaren Lichts
Tageslänge
Tomorrow will be .
, % of the Moon is Illuminated

Heutige Rekorde

State Highs State Lows

Community

WunderPhotos

Upload Photos

1,825,300 Fotos hochgeladen!

WunderBlogs® & News

Nearby

Luftqualität

  Luftqualität LQ Index Schadstoff
Not available.

Schneehöhe

Station Depth Höhe

Erdbebenaktivität

Stadt Distance Mag. Time & Date
Minimum magnitude displayed is 2.5.

küstennahe Wassertemperaturen

Ort Temperatur

Stations

Wetterstationen in der Umgebung

Stationsstandort Temp. Windchill Taupunkt Feuchtigkeit Wind Precip. Höhe Aktualisiert Art